Time;durP1;ratioP1;P1;durP2;ratioP2;P2;SDS_P1;SDS_P2;PMS_P1;PMS_P2;Temp;Humidity;BMP_temperature;BMP_pressure;BME280_temperature;BME280_humidity;BME280_pressure;Samples;Min_cycle;Max_cycle;Signal;HPM_P1;HPM_P2
2022/01/15 00:00:06;;;;;;;;;88.75;67.25;;;;;5.23;66.87;102561.63;5057168;28;46829;-78
2022/01/15 00:02:32;;;;;;;;;87.00;69.00;;;;;5.23;67.97;102565.19;5055892;28;45868;-78
2022/01/15 00:04:57;;;;;;;;;84.75;64.25;;;;;5.23;67.29;102548.03;5055166;28;45496;-86
2022/01/15 00:07:23;;;;;;;;;89.50;70.50;;;;;5.19;66.61;102546.53;5038008;28;45745;-85
2022/01/15 00:09:50;;;;;;;;;89.75;71.25;;;;;5.20;66.87;102540.13;5038580;28;47385;-85
2022/01/15 00:12:16;;;;;;;;;87.00;70.25;;;;;5.20;66.75;102545.56;5060530;28;45462;-85
2022/01/15 00:14:42;;;;;;;;;86.00;72.50;;;;;5.20;66.72;102542.84;5053757;28;45394;-78
2022/01/15 00:17:18;;;;;;;;;86.25;72.75;;;;;5.20;66.91;102537.41;5045676;28;45423;-78
2022/01/15 00:19:43;;;;;;;;;83.50;67.25;;;;;5.20;66.37;102540.13;5055562;28;45619;-84
2022/01/15 00:22:08;;;;;;;;;85.00;67.00;;;;;5.22;66.88;102540.84;5055579;28;45698;-79
2022/01/15 00:24:34;;;;;;;;;85.50;67.00;;;;;5.23;67.02;102534.41;5053535;28;45660;-77
2022/01/15 00:26:59;;;;;;;;;84.75;66.00;;;;;5.21;66.44;102539.09;5059738;28;45389;-85
2022/01/15 00:29:25;;;;;;;;;87.00;71.75;;;;;5.25;66.32;102543.31;5040971;28;46917;-78
2022/01/15 00:31:50;;;;;;;;;84.50;63.00;;;;;5.23;66.38;102527.09;5065537;28;45745;-79
2022/01/15 00:34:15;;;;;;;;;82.50;65.75;;;;;5.26;66.27;102523.28;5074502;28;45626;-79
2022/01/15 00:36:41;;;;;;;;;87.00;66.00;;;;;5.27;66.23;102530.44;5073898;28;45847;-78
2022/01/15 00:39:06;;;;;;;;;85.00;70.75;;;;;5.19;65.80;102513.91;5074131;28;46789;-79
2022/01/15 00:41:31;;;;;;;;;86.75;70.00;;;;;5.25;66.80;102516.09;5074175;28;45858;-78
2022/01/15 00:43:57;;;;;;;;;87.00;73.25;;;;;5.24;66.47;102527.97;5090841;27;45455;-85
2022/01/15 00:46:22;;;;;;;;;85.00;69.50;;;;;5.22;66.59;102510.91;5109909;27;45839;-78
2022/01/15 00:48:48;;;;;;;;;88.50;73.75;;;;;5.16;66.23;102500.56;5095218;27;45465;-77
2022/01/15 00:51:13;;;;;;;;;89.25;75.25;;;;;5.25;66.16;102514.22;5103393;27;45438;-85
2022/01/15 00:53:39;;;;;;;;;94.00;77.25;;;;;5.25;66.56;102519.66;5071841;28;45355;-84
2022/01/15 00:56:04;;;;;;;;;89.50;79.50;;;;;5.21;66.50;102509.19;5088556;28;45401;-84
2022/01/15 00:58:30;;;;;;;;;86.00;69.75;;;;;5.19;65.93;102508.47;5093009;28;45090;-85
2022/01/15 01:00:55;;;;;;;;;90.50;76.00;;;;;5.21;65.99;102514.63;5083840;28;45370;-77
2022/01/15 01:03:21;;;;;;;;;88.50;76.00;;;;;5.20;65.75;102502.88;5075141;28;45808;-83
2022/01/15 01:05:46;;;;;;;;;90.25;78.50;;;;;5.23;65.76;102507.22;5074781;28;45799;-78
2022/01/15 01:08:11;;;;;;;;;106.00;92.67;;;;;5.22;66.59;102500.88;5055033;28;47220;-77
2022/01/15 01:21:44;;;;;;;;;136.33;113.67;;;;;5.10;65.37;102488.34;5083930;28;45501;-83
2022/01/15 01:23:56;;;;;;;;;120.00;112.00;;;;;5.06;66.07;102476.88;5077398;28;45497;-78
2022/01/15 01:26:30;;;;;;;;;131.67;110.00;;;;;5.05;65.73;102472.41;5056097;28;46831;-77
2022/01/15 01:29:27;;;;;;;;;128.67;107.67;;;;;5.05;66.07;102472.41;5054009;28;46306;-77
2022/01/15 01:31:56;;;;;;;;;124.67;109.33;;;;;5.05;66.04;102468.84;5083369;27;45465;-86
2022/01/15 01:34:24;;;;;;;;;129.00;111.67;;;;;5.01;65.46;102470.94;5094860;27;45758;-85
2022/01/15 01:39:22;;;;;;;;;128.33;109.67;;;;;4.94;65.88;102475.19;5099582;27;45971;-86
2022/01/15 01:42:05;;;;;;;;;117.67;108.00;;;;;4.87;65.46;102463.09;5100939;27;45694;-79
2022/01/15 01:44:30;;;;;;;;;119.00;104.67;;;;;4.88;65.43;102470.25;5093208;27;45571;-79
2022/01/15 01:47:04;;;;;;;;;128.33;112.67;;;;;4.94;65.20;102467.91;5098380;27;45591;-84
2022/01/15 01:49:29;;;;;;;;;108.67;99.00;;;;;4.92;65.10;102472.56;5095595;27;45461;-83
2022/01/15 01:51:55;;;;;;;;;112.00;101.00;;;;;4.90;65.27;102480.00;5089974;27;45887;-77
2022/01/15 01:54:21;;;;;;;;;116.00;101.00;;;;;4.77;65.02;102450.28;5073362;28;45864;-83
2022/01/15 01:56:47;;;;;;;;;106.33;93.67;;;;;4.88;65.81;102465.69;5073491;28;45421;-78
2022/01/15 01:59:16;;;;;;;;;114.00;93.50;;;;;4.88;65.78;102462.09;5054890;28;47091;-78
2022/01/15 02:01:42;;;;;;;;;112.00;100.67;;;;;4.84;65.03;102453.34;5057609;28;45787;-85
2022/01/15 02:04:07;;;;;;;;;110.33;99.00;;;;;4.83;65.32;102459.75;5075566;28;45521;-86
2022/01/15 02:06:35;;;;;;;;;111.00;94.33;;;;;4.81;64.46;102453.59;5080299;28;45551;-85
2022/01/15 02:09:04;;;;;;;;;103.75;94.25;;;;;4.77;65.98;102447.56;5060908;28;46579;-84
2022/01/15 02:11:30;;;;;;;;;98.00;87.67;;;;;4.70;65.69;102431.88;5077677;28;45660;-85
2022/01/15 02:13:55;;;;;;;;;103.25;88.75;;;;;4.71;66.07;102442.63;5076427;28;45788;-86
2022/01/15 02:16:22;;;;;;;;;104.67;91.33;;;;;4.74;65.58;102455.09;5077192;28;45563;-85
2022/01/15 02:18:52;;;;;;;;;113.75;90.25;;;;;4.70;66.25;102437.31;5059801;28;48188;-83
2022/01/15 02:23:52;;;;;;;;;100.75;86.75;;;;;4.69;65.13;102451.91;5078171;28;45473;-83
2022/01/15 02:26:23;;;;;;;;;97.75;84.50;;;;;4.62;65.97;102440.69;5077645;28;45670;-82
2022/01/15 02:28:59;;;;;;;;;108.00;93.50;;;;;4.63;65.49;102439.69;5077448;28;46801;-84
2022/01/15 02:31:27;;;;;;;;;104.50;89.25;;;;;4.65;65.96;102445.88;5065442;28;45344;-84
2022/01/15 02:33:54;;;;;;;;;102.25;90.50;;;;;4.64;65.21;102446.88;5071086;28;45472;-83
2022/01/15 02:36:25;;;;;;;;;88.67;67.67;;;;;4.59;65.40;102432.78;5089668;27;46029;-84
2022/01/15 02:38:52;;;;;;;;;102.25;89.00;;;;;4.48;65.72;102414.66;5092633;28;45381;-84
2022/01/15 02:41:38;;;;;;;;;97.50;81.50;;;;;4.59;66.28;102430.94;5086994;28;45759;-77
2022/01/15 02:44:10;;;;;;;;;108.50;86.75;;;;;4.54;65.96;102432.31;5091127;28;45868;-84
2022/01/15 02:48:00;;;;;;;;;100.00;88.50;;;;;4.56;66.18;102438.47;5091614;28;44750;-83
2022/01/15 02:49:22;;;;;;;;;105.50;89.50;;;;;4.52;65.47;102432.44;5086880;28;45421;-82
2022/01/15 02:51:47;;;;;;;;;108.00;88.50;;;;;4.53;65.57;102434.16;5075984;28;45764;-84
2022/01/15 02:54:13;;;;;;;;;108.25;94.75;;;;;4.52;65.50;102429.75;5073659;28;45482;-83
2022/01/15 02:56:43;;;;;;;;;99.25;88.00;;;;;4.48;65.16;102420.09;5075566;28;45848;-84
2022/01/15 02:59:18;;;;;;;;;99.25;91.00;;;;;4.46;65.08;102411.22;5061513;28;46760;-85
2022/01/15 03:01:44;;;;;;;;;91.25;75.75;;;;;4.47;66.21;102403.94;5074078;28;45421;-78
2022/01/15 03:04:10;;;;;;;;;96.50;79.00;;;;;4.47;66.21;102406.66;5073160;28;45715;-79
2022/01/15 03:06:35;;;;;;;;;97.00;79.25;;;;;4.47;65.53;102404.78;5075199;28;45378;-79
2022/01/15 03:09:01;;;;;;;;;95.00;76.00;;;;;4.45;66.20;102409.50;5054186;28;45824;-77
2022/01/15 03:11:28;;;;;;;;;94.75;78.50;;;;;4.41;64.98;102400.72;5060020;27;45410;-78
2022/01/15 03:13:54;;;;;;;;;100.00;83.25;;;;;4.44;66.10;102407.75;5076857;27;45387;-84
2022/01/15 03:16:21;;;;;;;;;90.75;78.00;;;;;4.43;65.82;102406.03;5078570;28;45463;-84
2022/01/15 03:18:46;;;;;;;;;90.25;72.75;;;;;4.40;66.29;102404.44;5075129;28;46134;-77
2022/01/15 03:21:12;;;;;;;;;90.25;76.00;;;;;4.41;65.64;102408.88;5081643;27;45347;-78
2022/01/15 03:23:38;;;;;;;;;96.50;81.75;;;;;4.38;65.88;102402.84;5073123;27;45801;-77
2022/01/15 03:26:07;;;;;;;;;90.00;76.75;;;;;4.39;65.16;102405.44;5097501;27;45453;-77
2022/01/15 03:28:33;;;;;;;;;94.25;78.00;;;;;4.39;64.77;102407.28;5092489;27;46128;-77
2022/01/15 03:30:59;;;;;;;;;93.25;75.25;;;;;4.33;65.07;102384.22;5094195;27;45743;-76
2022/01/15 03:33:24;;;;;;;;;93.25;81.50;;;;;4.35;64.73;102390.38;5097103;27;45705;-76
2022/01/15 03:35:50;;;;;;;;;92.50;77.00;;;;;4.34;64.97;102390.50;5077510;27;46100;-77
2022/01/15 03:38:15;;;;;;;;;89.75;78.25;;;;;4.34;64.84;102387.78;5096400;27;45720;-77
2022/01/15 03:40:40;;;;;;;;;92.50;74.25;;;;;4.31;65.43;102388.91;5096876;27;45660;-77
2022/01/15 03:43:06;;;;;;;;;87.00;72.50;;;;;4.32;64.77;102376.19;5093947;27;45596;-78
2022/01/15 03:45:32;;;;;;;;;91.50;73.75;;;;;4.27;66.28;102372.97;5094857;27;45386;-77
2022/01/15 03:47:58;;;;;;;;;92.50;79.25;;;;;4.18;65.50;102352.91;5094315;27;45430;-78
2022/01/15 03:50:25;;;;;;;;;87.25;72.75;;;;;4.28;65.62;102366.56;5077209;27;45355;-77
2022/01/15 03:52:52;;;;;;;;;99.25;79.50;;;;;4.27;64.98;102363.00;5084676;27;45502;-77
2022/01/15 03:55:18;;;;;;;;;87.25;70.00;;;;;4.31;66.05;102364.47;5075697;28;45703;-80
2022/01/15 03:57:43;;;;;;;;;93.75;77.50;;;;;4.29;66.38;102363.72;5074934;28;45377;-78
2022/01/15 04:00:13;;;;;;;;;92.00;73.75;;;;;4.31;66.17;102359.03;5074592;28;45432;-80
2022/01/15 04:02:39;;;;;;;;;90.00;78.25;;;;;4.29;65.79;102355.56;5074621;28;45422;-78
2022/01/15 04:05:05;;;;;;;;;93.75;82.75;;;;;4.31;67.21;102348.19;5074429;28;45767;-77
2022/01/15 04:07:31;;;;;;;;;98.50;82.75;;;;;4.19;67.14;102327.44;5074133;28;45571;-78
2022/01/15 04:09:56;;;;;;;;;91.25;73.50;;;;;4.29;67.37;102342.00;5074842;28;45711;-77
2022/01/15 04:12:22;;;;;;;;;95.00;80.00;;;;;4.29;66.76;102344.72;5077229;28;45442;-78
2022/01/15 04:14:47;;;;;;;;;91.75;77.50;;;;;4.28;66.51;102345.72;5077535;28;45923;-79
2022/01/15 04:17:12;;;;;;;;;92.50;77.50;;;;;4.24;67.89;102338.81;5076571;28;46582;-80
2022/01/15 04:19:40;;;;;;;;;90.25;79.00;;;;;4.15;67.74;102326.00;5087560;28;45748;-86
2022/01/15 04:22:06;;;;;;;;;92.00;74.75;;;;;4.23;67.75;102345.22;5084274;28;45315;-86
2022/01/15 04:24:31;;;;;;;;;90.75;76.75;;;;;4.20;68.15;102338.19;5086307;28;45391;-85
2022/01/15 04:26:57;;;;;;;;;87.25;71.50;;;;;4.19;67.27;102335.59;5077828;28;48184;-85
2022/01/15 04:29:22;;;;;;;;;85.00;67.25;;;;;3.98;68.28;102306.56;5090172;28;44768;-86
2022/01/15 04:31:48;;;;;;;;;89.25;71.50;;;;;4.15;66.79;102332.28;5084504;28;46603;-78
2022/01/15 04:34:21;;;;;;;;;81.75;65.75;;;;;4.14;68.31;102329.69;5074578;28;46513;-76
2022/01/15 04:36:48;;;;;;;;;85.75;70.75;;;;;3.98;67.10;102286.66;5085504;27;45453;-78
2022/01/15 04:39:16;;;;;;;;;84.00;66.75;;;;;4.07;68.36;102313.94;5115634;27;45405;-85
2022/01/15 04:41:42;;;;;;;;;85.25;65.00;;;;;4.05;67.66;102305.03;5101981;27;45464;-86
2022/01/15 04:48:18;;;;;;;;;81.50;60.75;;;;;3.83;68.33;102278.81;4971844;27;45918;-91
2022/01/15 04:50:44;;;;;;;;;88.75;64.50;;;;;3.84;67.05;102282.41;5087511;27;45945;-87
2022/01/15 04:53:10;;;;;;;;;87.00;70.25;;;;;4.08;66.88;102320.22;5077596;27;45534;-85
2022/01/15 04:55:37;;;;;;;;;88.50;71.00;;;;;3.93;66.93;102294.34;5088848;27;45806;-85
2022/01/15 04:58:04;;;;;;;;;89.00;67.75;;;;;3.80;68.58;102278.19;5088410;27;45516;-85
2022/01/15 05:00:29;;;;;;;;;87.25;64.50;;;;;3.79;67.23;102271.06;5074658;27;46412;-86
2022/01/15 05:02:57;;;;;;;;;88.50;69.75;;;;;4.06;67.83;102325.78;5090393;27;46045;-85
2022/01/15 05:05:41;;;;;;;;;83.50;62.75;;;;;4.05;67.92;102321.31;5071609;27;47014;-84
2022/01/15 05:08:10;;;;;;;;;83.00;64.00;;;;;3.96;67.49;102303.09;5099058;27;45691;-90
2022/01/15 05:10:37;;;;;;;;;80.50;62.75;;;;;3.89;67.82;102288.28;5091402;27;45528;-87
2022/01/15 05:13:10;;;;;;;;;81.50;64.00;;;;;3.59;66.98;102237.41;5090286;27;45496;-87
2022/01/15 05:15:36;;;;;;;;;80.00;62.25;;;;;3.81;66.85;102271.78;5075990;27;46013;-86
2022/01/15 05:18:02;;;;;;;;;80.50;60.75;;;;;3.98;67.50;102301.13;5073320;27;47125;-88
2022/01/15 05:20:28;;;;;;;;;78.50;62.00;;;;;4.04;67.82;102307.88;5094063;27;45908;-87
2022/01/15 05:22:53;;;;;;;;;84.25;70.25;;;;;3.70;67.65;102246.41;5083814;28;45375;-84
2022/01/15 05:25:19;;;;;;;;;82.00;69.00;;;;;4.05;68.26;102310.47;5083777;28;45308;-87
2022/01/15 05:27:46;;;;;;;;;81.00;60.50;;;;;3.83;67.56;102273.41;5077008;28;45386;-82
2022/01/15 05:30:13;;;;;;;;;84.50;65.00;;;;;4.07;67.37;102316.66;5072314;28;45450;-80
2022/01/15 05:32:39;;;;;;;;;83.00;63.25;;;;;4.07;66.59;102311.22;5076261;28;45746;-82
2022/01/15 05:35:05;;;;;;;;;82.50;62.50;;;;;3.98;66.65;102294.81;5078823;28;45515;-83
2022/01/15 05:37:31;;;;;;;;;83.25;62.25;;;;;4.07;66.83;102313.03;5080545;28;46349;-84
2022/01/15 05:39:57;;;;;;;;;84.00;66.75;;;;;3.84;66.49;102268.81;5060611;28;45413;-86
2022/01/15 05:42:23;;;;;;;;;83.00;67.00;;;;;3.88;66.79;102287.44;5058737;28;45391;-87
2022/01/15 05:44:49;;;;;;;;;84.50;62.50;;;;;3.96;66.59;102304.94;5078703;28;45768;-86
2022/01/15 05:47:14;;;;;;;;;84.75;67.25;;;;;3.85;67.56;102281.41;5081203;28;46504;-87
2022/01/15 05:49:40;;;;;;;;;88.00;71.00;;;;;4.07;66.65;102329.34;5064065;28;45454;-87
2022/01/15 05:52:06;;;;;;;;;81.25;62.00;;;;;4.06;67.50;102325.78;5069263;27;45551;-85
2022/01/15 05:54:32;;;;;;;;;87.50;73.50;;;;;3.96;66.56;102305.78;5084143;27;46406;-85
2022/01/15 05:56:57;;;;;;;;;90.50;73.25;;;;;3.97;67.51;102307.53;5084532;27;47002;-85
2022/01/15 05:59:23;;;;;;;;;86.25;69.75;;;;;4.06;67.38;102323.06;5101697;27;45376;-85
2022/01/15 06:01:49;;;;;;;;;89.25;73.25;;;;;4.07;66.26;102335.66;5083020;27;45454;-86
2022/01/15 06:04:15;;;;;;;;;94.00;78.25;;;;;4.04;67.10;102322.31;5094194;27;45928;-78
2022/01/15 06:06:40;;;;;;;;;87.25;66.75;;;;;4.09;67.43;102332.81;5096046;27;46280;-80
2022/01/15 06:09:06;;;;;;;;;86.75;68.75;;;;;4.07;66.04;102329.34;5099343;27;45400;-79
2022/01/15 06:11:34;;;;;;;;;80.75;67.00;;;;;4.07;66.22;102319.34;5108919;27;45447;-80
2022/01/15 06:13:59;;;;;;;;;88.75;70.00;;;;;4.05;66.09;102315.03;5108880;27;45818;-81
2022/01/15 06:16:25;;;;;;;;;92.00;74.25;;;;;4.06;65.55;102317.63;5100462;27;45509;-84
2022/01/15 06:18:51;;;;;;;;;86.00;69.25;;;;;4.03;65.91;102328.75;5095575;27;45924;-81
2022/01/15 06:21:16;;;;;;;;;84.00;66.00;;;;;4.01;65.15;102321.69;5101335;27;45398;-82
2022/01/15 06:23:42;;;;;;;;;84.00;67.50;;;;;3.93;65.00;102310.63;5103421;27;45774;-81
2022/01/15 06:26:08;;;;;;;;;85.50;66.50;;;;;3.93;65.90;102314.19;5097055;27;48004;-81
2022/01/15 06:28:33;;;;;;;;;86.50;72.25;;;;;3.93;65.22;102318.78;5090277;27;46429;-76
2022/01/15 06:30:59;;;;;;;;;89.75;67.50;;;;;3.93;65.63;102306.06;5089714;27;45618;-76
2022/01/15 06:33:24;;;;;;;;;91.00;72.50;;;;;3.79;65.65;102285.50;5084570;27;45666;-74
2022/01/15 06:35:51;;;;;;;;;84.50;67.50;;;;;3.84;64.64;102295.97;5088963;27;47673;-75
2022/01/15 06:38:17;;;;;;;;;88.50;74.25;;;;;3.91;65.29;102309.88;5080697;27;45953;-74
2022/01/15 06:40:42;;;;;;;;;90.25;70.75;;;;;3.85;64.74;102311.28;5084889;27;45679;-76
2022/01/15 06:43:08;;;;;;;;;88.50;72.50;;;;;3.84;64.75;102313.09;5079109;27;45482;-75
2022/01/15 06:45:33;;;;;;;;;87.25;69.50;;;;;3.84;65.87;102313.09;5081760;27;45544;-74
2022/01/15 06:48:00;;;;;;;;;90.50;74.75;;;;;3.76;65.42;102295.72;5085992;27;45460;-81
2022/01/15 06:50:27;;;;;;;;;89.75;75.25;;;;;3.77;65.10;102289.31;5073266;27;45571;-80
2022/01/15 06:52:53;;;;;;;;;83.25;62.75;;;;;3.79;65.67;102290.91;5095324;27;46396;-77
2022/01/15 06:55:19;;;;;;;;;85.50;69.25;;;;;3.78;64.38;102291.91;5100709;27;46441;-77
2022/01/15 06:57:45;;;;;;;;;89.00;73.50;;;;;3.72;64.67;102293.25;5084157;27;45447;-75
2022/01/15 07:00:12;;;;;;;;;92.25;73.25;;;;;3.78;64.67;102297.31;5082459;27;45659;-77
2022/01/15 07:02:38;;;;;;;;;83.00;63.25;;;;;3.74;64.51;102289.56;5099337;27;45138;-75
2022/01/15 07:05:05;;;;;;;;;90.75;73.00;;;;;3.76;65.19;102291.16;5098385;27;46548;-74
2022/01/15 07:07:32;;;;;;;;;87.75;70.50;;;;;3.76;65.40;102282.16;5065790;27;45496;-76
2022/01/15 07:09:57;;;;;;;;;93.00;71.50;;;;;3.75;64.33;102286.72;5071981;27;45489;-75
2022/01/15 07:12:23;;;;;;;;;88.25;73.25;;;;;3.76;64.77;102282.16;5096016;27;45966;-76
2022/01/15 07:14:49;;;;;;;;;87.50;70.25;;;;;3.72;64.89;102276.97;5092605;27;45496;-77
2022/01/15 07:17:14;;;;;;;;;88.25;66.25;;;;;3.72;64.35;102270.69;5086247;27;45814;-76
2022/01/15 07:19:40;;;;;;;;;86.75;68.25;;;;;3.75;65.67;102272.31;5082112;27;46662;-76
2022/01/15 07:22:06;;;;;;;;;91.75;76.25;;;;;3.73;64.69;102277.84;5091422;27;45982;-76
2022/01/15 07:24:32;;;;;;;;;86.50;68.75;;;;;3.77;66.03;102281.16;5095513;27;46923;-76
2022/01/15 07:26:58;;;;;;;;;90.75;77.00;;;;;3.77;65.04;102273.03;5084064;27;45786;-75
2022/01/15 07:29:24;;;;;;;;;88.25;68.50;;;;;3.75;66.20;102285.88;5091492;27;45931;-75
2022/01/15 07:31:52;;;;;;;;;82.75;65.25;;;;;3.77;66.32;102273.03;5088652;27;45533;-75
2022/01/15 07:34:17;;;;;;;;;91.75;73.00;;;;;3.79;65.09;102273.78;5092801;27;46826;-75
2022/01/15 07:36:43;;;;;;;;;86.00;68.25;;;;;3.82;65.30;102270.81;5086171;27;45794;-75
2022/01/15 07:39:11;;;;;;;;;93.25;72.00;;;;;3.76;65.60;102250.47;5078763;27;45800;-74
2022/01/15 07:41:37;;;;;;;;;91.25;77.50;;;;;3.86;66.24;102267.72;5073478;27;46370;-76
2022/01/15 07:44:03;;;;;;;;;87.50;71.00;;;;;3.88;64.96;102271.16;5092417;27;46180;-76
2022/01/15 07:46:29;;;;;;;;;86.75;67.00;;;;;3.86;64.94;102264.13;5093395;27;45721;-77
2022/01/15 07:48:55;;;;;;;;;87.00;67.75;;;;;3.93;64.65;102269.91;5096306;27;45776;-79
2022/01/15 07:51:20;;;;;;;;;135.33;114.67;;;;;3.96;66.05;102275.09;5068819;27;47351;-78
2022/01/15 07:53:46;;;;;;;;;115.00;98.00;;;;;3.99;65.77;102282.97;5085773;27;46507;-75
2022/01/15 07:56:11;;;;;;;;;86.50;62.50;;;;;4.02;65.59;102270.00;5089328;27;45717;-73
2022/01/15 07:58:37;;;;;;;;;93.25;76.00;;;;;4.05;65.97;102256.16;5090136;27;45746;-77
2022/01/15 08:01:02;;;;;;;;;89.50;72.50;;;;;4.00;65.10;102246.72;5094455;27;46114;-80
2022/01/15 08:03:28;;;;;;;;;86.00;68.50;;;;;4.15;64.88;102271.72;5082742;27;47903;-76
2022/01/15 08:05:53;;;;;;;;;93.00;82.75;;;;;4.18;64.90;102258.72;5093108;27;45837;-77
2022/01/15 08:08:19;;;;;;;;;91.50;73.00;;;;;4.23;65.15;102263.75;5093184;27;45815;-77
2022/01/15 08:10:44;;;;;;;;;87.00;67.25;;;;;4.26;65.68;102252.63;5094275;27;45931;-77
2022/01/15 08:13:10;;;;;;;;;86.50;69.75;;;;;4.32;65.69;102257.53;5089597;27;45900;-77
2022/01/15 08:15:36;;;;;;;;;91.25;78.25;;;;;4.37;65.47;102258.03;5079530;27;45847;-78
2022/01/15 08:18:02;;;;;;;;;92.50;72.00;;;;;4.33;65.28;102242.13;5090813;27;45872;-77
2022/01/15 08:20:28;;;;;;;;;94.00;75.75;;;;;4.48;65.87;102258.97;5068805;27;47249;-77
2022/01/15 08:22:53;;;;;;;;;90.25;73.25;;;;;4.55;65.68;102260.13;5081652;27;45715;-77
2022/01/15 08:25:20;;;;;;;;;83.50;71.25;;;;;4.64;65.12;102248.50;5089398;27;45856;-77
2022/01/15 08:27:46;;;;;;;;;87.75;73.25;;;;;4.70;65.23;102256.13;5088015;27;45402;-76
2022/01/15 08:30:12;;;;;;;;;92.50;76.75;;;;;4.77;64.46;102251.88;5060887;28;47020;-77
2022/01/15 08:32:38;;;;;;;;;90.00;74.50;;;;;4.83;63.68;102253.19;5083891;27;46251;-79
2022/01/15 08:35:08;;;;;;;;;91.00;81.75;;;;;4.89;64.06;102259.94;5086934;27;45836;-75
2022/01/15 08:37:34;;;;;;;;;89.50;78.00;;;;;4.97;63.54;102260.16;5086687;27;45503;-79
2022/01/15 08:40:00;;;;;;;;;93.50;78.00;;;;;5.03;63.09;102259.59;5089543;27;45701;-79
2022/01/15 08:42:26;;;;;;;;;89.75;79.00;;;;;5.12;64.05;102266.09;5090676;27;46957;-79
2022/01/15 08:44:52;;;;;;;;;91.25;76.75;;;;;5.18;62.60;102261.94;5074364;27;45696;-80
2022/01/15 08:47:18;;;;;;;;;94.75;84.75;;;;;5.22;63.20;102266.13;5083392;27;45421;-80
2022/01/15 08:49:44;;;;;;;;;101.75;86.75;;;;;5.32;62.84;102271.63;5072566;27;46980;-80
2022/01/15 08:52:09;;;;;;;;;93.25;80.50;;;;;5.40;62.89;102267.19;5070278;28;46338;-80
2022/01/15 08:54:35;;;;;;;;;93.25;81.25;;;;;5.45;62.04;102280.41;5077775;27;45814;-80
2022/01/15 08:57:00;;;;;;;;;92.50;79.75;;;;;5.45;62.27;102270.38;5081965;27;45908;-80
2022/01/15 08:59:27;;;;;;;;;90.00;74.50;;;;;5.60;62.52;102270.88;5085040;27;45515;-82
2022/01/15 09:01:55;;;;;;;;;93.00;82.00;;;;;5.97;62.23;102269.41;5083222;27;46638;-80
2022/01/15 09:04:21;;;;;;;;;89.00;78.00;;;;;6.60;61.96;102271.72;5074763;27;45909;-80
2022/01/15 09:06:46;;;;;;;;;91.25;76.00;;;;;7.28;59.36;102272.56;5078399;27;45514;-76
2022/01/15 09:09:15;;;;;;;;;87.25;71.50;;;;;8.08;57.19;102270.09;5083032;27;45522;-76
2022/01/15 09:11:40;;;;;;;;;86.50;77.75;;;;;8.76;55.14;102257.78;5086971;27;46563;-80
2022/01/15 09:14:06;;;;;;;;;84.50;72.00;;;;;9.42;53.51;102264.50;5092131;27;46011;-80
2022/01/15 09:16:31;;;;;;;;;85.50;74.00;;;;;10.06;52.02;102262.16;5070040;27;45573;-81
2022/01/15 09:18:57;;;;;;;;;83.00;65.50;;;;;10.69;50.79;102261.69;5088699;27;45692;-80
2022/01/15 09:21:24;;;;;;;;;83.50;70.00;;;;;11.28;49.71;102258.69;5071105;27;48200;-76
2022/01/15 09:23:51;;;;;;;;;84.50;78.50;;;;;11.84;48.01;102254.00;5084320;27;45879;-78
2022/01/15 09:26:23;;;;;;;;;90.00;82.50;;;;;12.41;46.56;102256.56;5075379;27;45852;-81
2022/01/15 09:31:34;;;;;;;;;101.50;88.50;;;;;13.50;43.96;102256.19;5082549;27;45760;-80
2022/01/15 09:33:59;;;;;;;;;86.50;76.50;;;;;13.97;43.22;102262.28;5077459;27;45438;-80
2022/01/15 09:36:25;;;;;;;;;99.50;85.00;;;;;14.38;41.78;102259.78;5077247;27;45878;-80
2022/01/15 09:38:50;;;;;;;;;85.50;80.50;;;;;14.78;40.85;102264.84;5077471;27;45934;-76
2022/01/15 09:41:19;;;;;;;;;84.75;77.25;;;;;15.04;41.14;102269.72;5069314;27;45905;-76
2022/01/15 09:43:45;;;;;;;;;87.00;77.50;;;;;15.40;39.38;102262.28;5080244;27;45864;-75
2022/01/15 09:46:11;;;;;;;;;81.50;77.25;;;;;15.60;39.07;102254.97;5068539;27;45929;-77
2022/01/15 09:48:38;;;;;;;;;90.75;80.75;;;;;15.99;38.10;102258.97;5098507;27;45827;-77
2022/01/15 09:51:05;;;;;;;;;87.25;74.00;;;;;16.25;37.82;102254.56;5091502;27;45496;-80
2022/01/15 09:53:32;;;;;;;;;90.75;79.50;;;;;16.46;37.26;102250.75;5093953;27;44811;-80
2022/01/15 09:56:00;;;;;;;;;88.25;77.25;;;;;16.71;37.31;102239.91;5092037;27;45449;-79
2022/01/15 09:58:26;;;;;;;;;92.25;81.75;;;;;16.83;35.90;102239.28;5090803;27;46105;-78
2022/01/15 10:00:52;;;;;;;;;92.00;82.75;;;;;16.92;35.89;102238.03;5093869;27;45754;-78
2022/01/15 10:03:18;;;;;;;;;88.50;73.50;;;;;17.06;35.14;102239.69;5091413;27;46628;-75
2022/01/15 10:05:45;;;;;;;;;92.00;80.50;;;;;17.21;36.28;102249.69;5092793;27;45473;-79
2022/01/15 10:08:13;;;;;;;;;99.50;83.50;;;;;17.21;35.48;102235.84;5077846;27;46123;-74
2022/01/15 10:10:46;;;;;;;;;79.50;63.50;;;;;17.17;35.02;102251.19;5069186;27;47176;-76
2022/01/15 10:13:17;;;;;;;;;90.25;77.25;;;;;17.01;35.87;102241.44;5072305;27;45762;-81
2022/01/15 10:15:44;;;;;;;;;87.50;74.75;;;;;17.09;34.98;102246.72;5092827;27;45738;-81
2022/01/15 10:18:21;;;;;;;;;91.75;80.75;;;;;16.98;36.44;102248.25;5076432;27;47278;-76
2022/01/15 10:20:47;;;;;;;;;95.00;85.25;;;;;16.94;35.77;102235.88;5070514;27;45482;-80
2022/01/15 10:23:18;;;;;;;;;94.75;84.50;;;;;16.98;36.14;102244.63;5068080;27;45719;-80
2022/01/15 10:25:44;;;;;;;;;90.75;80.75;;;;;16.93;35.82;102251.66;5093287;27;45838;-82
2022/01/15 10:28:09;;;;;;;;;91.50;79.75;;;;;16.84;35.89;102252.06;5069772;27;46052;-76
2022/01/15 10:30:41;;;;;;;;;94.00;86.50;;;;;16.82;35.94;102248.66;5089388;27;46488;-78
2022/01/15 10:33:09;;;;;;;;;101.50;85.75;;;;;16.81;35.39;102244.16;5081562;27;45929;-81
2022/01/15 10:35:39;;;;;;;;;90.75;78.75;;;;;16.74;35.72;102244.19;5089308;27;46103;-81
2022/01/15 10:38:10;;;;;;;;;88.25;77.50;;;;;16.61;36.33;102231.19;5069255;27;46106;-76
2022/01/15 10:40:38;;;;;;;;;100.75;87.75;;;;;16.46;36.36;102223.06;5073763;27;47021;-79
2022/01/15 10:43:05;;;;;;;;;95.75;84.75;;;;;16.26;36.56;102220.31;5076838;27;45607;-76
2022/01/15 10:45:34;;;;;;;;;110.25;89.25;;;;;16.12;36.99;102218.56;5071717;27;45561;-81
2022/01/15 10:48:02;;;;;;;;;111.25;99.75;;;;;15.80;37.20;102215.50;5065886;27;46018;-80
2022/01/15 10:50:31;;;;;;;;;106.00;94.00;;;;;15.62;37.85;102216.88;5069023;28;47361;-79
2022/01/15 10:52:58;;;;;;;;;104.25;92.75;;;;;15.36;38.01;102201.88;5085355;27;46612;-81
2022/01/15 10:55:29;;;;;;;;;109.00;93.75;;;;;15.18;38.54;102224.53;5085190;27;46076;-76
2022/01/15 10:58:01;;;;;;;;;104.25;91.75;;;;;14.91;39.04;102208.84;5082980;27;47149;-77
2022/01/15 11:00:36;;;;;;;;;100.75;93.00;;;;;14.69;39.69;102213.59;5073671;27;47801;-80
2022/01/15 11:03:14;;;;;;;;;97.50;87.00;;;;;14.40;39.28;102209.88;5090372;27;45427;-80
2022/01/15 11:05:47;;;;;;;;;105.50;94.25;;;;;14.21;40.84;102208.66;5069034;27;45759;-76
2022/01/15 11:08:26;;;;;;;;;101.25;87.75;;;;;14.01;41.29;102213.97;5084824;27;46075;-74
2022/01/15 11:11:00;;;;;;;;;99.75;86.25;;;;;13.86;41.79;102211.25;5088867;27;46084;-77
2022/01/15 11:13:33;;;;;;;;;92.75;86.75;;;;;13.75;41.23;102210.72;5064681;27;45686;-75
2022/01/15 11:16:05;;;;;;;;;91.50;81.75;;;;;13.64;41.58;102213.97;5070669;27;45939;-76
2022/01/15 11:18:39;;;;;;;;;98.25;83.25;;;;;13.53;41.70;102185.03;5082916;27;45852;-76
2022/01/15 11:21:07;;;;;;;;;90.25;83.00;;;;;13.48;42.46;102193.00;5085617;27;45503;-75
2022/01/15 11:23:35;;;;;;;;;112.25;90.75;;;;;13.27;42.50;102188.25;5088729;27;45841;-82
2022/01/15 11:26:05;;;;;;;;;111.50;96.25;;;;;13.15;43.18;102189.78;5074798;28;45443;-79
2022/01/15 11:28:33;;;;;;;;;91.00;78.25;;;;;13.04;42.50;102194.72;5071885;28;45501;-81
2022/01/15 11:31:02;;;;;;;;;98.50;87.00;;;;;12.96;42.90;102185.69;5077520;27;45331;-80
2022/01/15 11:33:31;;;;;;;;;90.25;86.25;;;;;12.81;43.25;102175.50;5081085;27;45792;-80
2022/01/15 11:35:58;;;;;;;;;104.75;92.50;;;;;12.66;43.08;102164.47;5082249;27;45353;-79